createdAt,value
2018-05-02T00:01:39.707Z,7.71
2018-05-02T00:04:08.507Z,7.66
2018-05-02T00:06:36.812Z,7.68
2018-05-02T00:09:06.009Z,7.75
2018-05-02T00:11:35.687Z,7.68
2018-05-02T00:14:04.023Z,7.70
2018-05-02T00:16:32.338Z,7.70
2018-05-02T00:19:00.727Z,7.62
2018-05-02T00:21:29.049Z,7.45
2018-05-02T00:23:57.603Z,7.38
2018-05-02T00:26:26.326Z,7.19
2018-05-02T00:28:54.686Z,7.22
2018-05-02T00:31:23.755Z,7.30
2018-05-02T00:33:52.118Z,7.26
2018-05-02T00:36:33.407Z,7.25
2018-05-02T00:39:01.790Z,7.36
2018-05-02T00:41:30.354Z,7.35
2018-05-02T00:43:59.499Z,7.31
2018-05-02T00:46:29.115Z,7.29
2018-05-02T00:49:17.141Z,7.21
2018-05-02T00:51:46.279Z,6.89
2018-05-02T00:54:14.579Z,6.88
2018-05-02T00:56:42.876Z,6.88
2018-05-02T00:59:11.269Z,6.94
2018-05-02T01:01:40.400Z,6.88
2018-05-02T01:04:08.798Z,6.77
2018-05-02T01:06:37.312Z,6.56
2018-05-02T01:09:05.645Z,6.45
2018-05-02T01:11:33.949Z,6.40
2018-05-02T01:14:02.302Z,6.48
2018-05-02T01:16:30.610Z,6.26
2018-05-02T01:18:58.908Z,6.25
2018-05-02T01:21:27.252Z,6.00
2018-05-02T01:23:55.567Z,6.06
2018-05-02T01:26:23.931Z,6.11
2018-05-02T01:28:52.735Z,6.05
2018-05-02T01:31:21.063Z,5.87
2018-05-02T01:33:49.396Z,5.78
2018-05-02T01:36:17.756Z,5.56
2018-05-02T01:38:46.103Z,5.43
2018-05-02T01:41:14.438Z,5.50
2018-05-02T01:43:42.788Z,5.20
2018-05-02T01:46:11.112Z,5.35
2018-05-02T01:51:39.479Z,5.44
2018-05-02T01:54:07.841Z,5.41
2018-05-02T01:56:36.162Z,5.57
2018-05-02T01:59:04.501Z,5.53
2018-05-02T02:01:32.873Z,5.40
2018-05-02T02:04:01.227Z,5.35
2018-05-02T02:06:29.554Z,5.30
2018-05-02T02:08:58.158Z,5.29
2018-05-02T02:11:26.476Z,5.51
2018-05-02T02:13:54.801Z,5.50
2018-05-02T02:16:23.136Z,5.53
2018-05-02T02:18:51.464Z,5.34
2018-05-02T02:21:19.815Z,5.33
2018-05-02T02:23:48.927Z,5.33
2018-05-02T02:26:17.256Z,5.43
2018-05-02T02:28:46.323Z,5.56
2018-05-02T02:31:14.964Z,5.41
2018-05-02T02:33:43.271Z,5.17
2018-05-02T02:36:11.591Z,5.29
2018-05-02T02:38:39.924Z,5.35
2018-05-02T02:41:08.232Z,5.35
2018-05-02T02:43:36.560Z,5.48
2018-05-02T02:46:04.901Z,5.39
2018-05-02T02:48:33.996Z,5.37
2018-05-02T02:51:03.100Z,5.33
2018-05-02T02:53:31.571Z,5.51
2018-05-02T02:56:00.659Z,5.26
2018-05-02T02:58:29.751Z,5.22
2018-05-02T03:00:58.877Z,5.10
2018-05-02T03:03:27.199Z,4.81
2018-05-02T03:05:55.512Z,4.89
2018-05-02T03:08:24.621Z,4.82
2018-05-02T03:10:52.951Z,4.92
2018-05-02T03:13:21.260Z,4.72
2018-05-02T03:15:50.614Z,4.79
2018-05-02T03:18:18.921Z,4.72
2018-05-02T03:20:47.265Z,4.71
2018-05-02T03:23:15.622Z,4.35
2018-05-02T03:25:43.931Z,4.38
2018-05-02T03:28:12.248Z,4.33
2018-05-02T03:30:40.622Z,4.41
2018-05-02T03:33:08.929Z,4.58
2018-05-02T03:35:37.994Z,4.62
2018-05-02T03:38:06.374Z,4.78
2018-05-02T03:40:34.684Z,4.96
2018-05-02T03:43:02.996Z,5.13
2018-05-02T03:45:31.354Z,5.07
2018-05-02T03:47:59.660Z,5.16
2018-05-02T03:50:27.960Z,5.08
2018-05-02T03:52:56.340Z,5.17
2018-05-02T03:55:25.397Z,5.26
2018-05-02T03:57:53.687Z,5.31
2018-05-02T04:00:39.975Z,5.14
2018-05-02T04:03:25.783Z,4.99
2018-05-02T04:06:10.840Z,5.16
2018-05-02T04:08:39.232Z,5.11
2018-05-02T04:11:07.506Z,5.31
2018-05-02T04:13:35.870Z,5.35
2018-05-02T04:16:04.210Z,5.37
2018-05-02T04:18:32.526Z,5.45
2018-05-02T04:21:01.363Z,5.56
2018-05-02T04:23:30.460Z,5.53
2018-05-02T04:25:58.863Z,5.08
2018-05-02T04:28:27.130Z,5.25
2018-05-02T04:30:56.248Z,5.26
2018-05-02T04:33:24.563Z,5.23
2018-05-02T04:35:52.948Z,5.34
2018-05-02T04:38:21.283Z,5.42
2018-05-02T04:40:49.626Z,5.47
2018-05-02T04:43:18.449Z,5.58
2018-05-02T04:45:46.780Z,5.63
2018-05-02T04:48:15.099Z,5.81
2018-05-02T04:53:18.040Z,6.30
2018-05-02T04:55:46.370Z,6.14
2018-05-02T04:58:15.484Z,6.31
2018-05-02T05:00:43.881Z,5.70
2018-05-02T05:03:12.568Z,6.06
2018-05-02T05:05:40.864Z,6.50
2018-05-02T05:08:09.357Z,6.45
2018-05-02T05:10:37.707Z,6.64
2018-05-02T05:13:06.012Z,6.80
2018-05-02T05:15:34.342Z,6.84
2018-05-02T05:18:02.726Z,7.03
2018-05-02T05:20:31.055Z,7.18
2018-05-02T05:22:59.364Z,7.15
2018-05-02T05:25:28.179Z,7.57
2018-05-02T05:27:56.511Z,7.52
2018-05-02T05:30:24.888Z,7.86
2018-05-02T05:32:53.235Z,7.86
2018-05-02T05:35:21.587Z,8.22
2018-05-02T05:37:49.924Z,8.25
2018-05-02T05:40:18.361Z,8.21
2018-05-02T05:42:46.680Z,8.47
2018-05-02T05:45:15.045Z,8.77
2018-05-02T05:47:43.477Z,8.82
2018-05-02T05:50:11.778Z,8.78
2018-05-02T05:52:40.155Z,9.10
2018-05-02T05:55:08.495Z,9.08
2018-05-02T05:57:37.571Z,9.02
2018-05-02T06:00:05.897Z,9.30
2018-05-02T06:02:34.237Z,9.44
2018-05-02T06:05:02.640Z,9.46
2018-05-02T06:07:30.925Z,9.63
2018-05-02T06:10:00.298Z,9.99
2018-05-02T06:12:28.653Z,9.62
2018-05-02T06:14:57.462Z,9.71
2018-05-02T06:17:26.636Z,10.09
2018-05-02T06:19:54.971Z,10.51
2018-05-02T06:22:24.039Z,10.64
2018-05-02T06:24:52.381Z,10.86
2018-05-02T06:27:20.720Z,11.21
2018-05-02T06:29:49.034Z,11.30
2018-05-02T06:32:17.931Z,11.72
2018-05-02T06:34:46.277Z,11.63
2018-05-02T06:37:14.618Z,11.49
2018-05-02T06:39:42.959Z,11.54
2018-05-02T06:42:11.301Z,11.69
2018-05-02T06:44:40.388Z,12.12
2018-05-02T06:47:09.493Z,12.45
2018-05-02T06:49:38.608Z,12.61
2018-05-02T06:52:06.924Z,12.65
2018-05-02T06:54:36.466Z,12.67
2018-05-02T06:57:04.804Z,12.57
2018-05-02T06:59:33.211Z,12.58
2018-05-02T07:02:01.647Z,12.43
2018-05-02T07:04:29.995Z,12.91
2018-05-02T07:06:58.425Z,13.04
2018-05-02T07:09:26.831Z,12.62
2018-05-02T07:11:55.180Z,12.78
2018-05-02T07:14:23.500Z,12.78
2018-05-02T07:16:52.480Z,12.75
2018-05-02T07:19:20.848Z,12.91
2018-05-02T07:21:49.217Z,13.11
2018-05-02T07:24:17.596Z,13.63
2018-05-02T07:26:46.030Z,13.78
2018-05-02T07:29:15.170Z,13.40
2018-05-02T07:31:43.596Z,13.50
2018-05-02T07:34:12.725Z,13.71
2018-05-02T07:36:41.078Z,13.87
2018-05-02T07:39:09.609Z,14.22
2018-05-02T07:41:37.975Z,14.67
2018-05-02T07:44:06.301Z,14.99
2018-05-02T07:46:34.657Z,14.36
2018-05-02T07:49:02.994Z,14.39
2018-05-02T07:51:31.328Z,14.64
2018-05-02T07:53:59.699Z,14.92
2018-05-02T07:56:28.866Z,14.74
2018-05-02T07:58:57.132Z,14.91
2018-05-02T08:01:25.884Z,15.10
2018-05-02T08:03:54.219Z,14.95
2018-05-02T08:06:22.552Z,14.74
2018-05-02T08:08:51.713Z,15.03
2018-05-02T08:11:20.078Z,15.41
2018-05-02T08:13:48.386Z,15.37
2018-05-02T08:16:16.747Z,15.64
2018-05-02T08:18:45.115Z,15.93
2018-05-02T08:21:13.421Z,16.09
2018-05-02T08:23:42.275Z,16.19
2018-05-02T08:26:10.593Z,16.53
2018-05-02T08:28:38.938Z,16.69
2018-05-02T08:31:07.296Z,17.01
2018-05-02T08:33:35.802Z,16.57
2018-05-02T08:36:04.129Z,16.51
2018-05-02T08:38:32.477Z,16.56
2018-05-02T08:41:00.799Z,16.53
2018-05-02T08:43:29.144Z,16.93
2018-05-02T08:45:57.614Z,16.94
2018-05-02T08:48:25.935Z,17.52
2018-05-02T08:50:55.016Z,17.87
2018-05-02T08:53:23.429Z,17.32
2018-05-02T08:55:51.782Z,17.35
2018-05-02T08:58:20.873Z,17.63
2018-05-02T09:00:49.210Z,17.84
2018-05-02T09:03:17.529Z,17.79
2018-05-02T09:05:45.889Z,18.37
2018-05-02T09:08:14.759Z,18.19
2018-05-02T09:10:43.146Z,18.19
2018-05-02T09:13:11.487Z,17.90
2018-05-02T09:15:39.871Z,17.58
2018-05-02T09:18:09.046Z,17.10
2018-05-02T09:20:37.381Z,16.84
2018-05-02T09:23:05.747Z,16.97
2018-05-02T09:25:34.102Z,16.82
2018-05-02T09:28:02.501Z,17.14
2018-05-02T09:30:31.239Z,17.20
2018-05-02T09:32:59.570Z,17.44
2018-05-02T09:35:27.902Z,17.32
2018-05-02T09:37:57.027Z,17.03
2018-05-02T09:40:25.386Z,17.44
2018-05-02T09:42:54.492Z,17.88
2018-05-02T09:45:23.600Z,17.29
2018-05-02T09:47:51.995Z,17.84
2018-05-02T09:50:20.431Z,17.99
2018-05-02T09:52:49.055Z,17.84
2018-05-02T09:55:17.393Z,18.04
2018-05-02T09:57:45.716Z,17.75
2018-05-02T10:00:14.089Z,17.80
2018-05-02T10:02:42.394Z,18.38
2018-05-02T10:05:10.702Z,18.17
2018-05-02T10:07:39.120Z,18.07
2018-05-02T10:10:07.464Z,18.31
2018-05-02T10:12:36.567Z,18.64
2018-05-02T10:15:06.204Z,18.29
2018-05-02T10:17:34.550Z,18.33
2018-05-02T10:20:02.927Z,18.78
2018-05-02T10:22:31.269Z,19.50
2018-05-02T10:24:59.684Z,19.88
2018-05-02T10:27:28.039Z,19.32
2018-05-02T10:29:56.770Z,18.57
2018-05-02T10:32:25.134Z,18.72
2018-05-02T10:34:53.499Z,19.36
2018-05-02T10:37:21.983Z,19.45
2018-05-02T10:39:50.326Z,19.07
2018-05-02T10:42:18.658Z,18.94
2018-05-02T10:44:47.006Z,18.79
2018-05-02T10:47:15.336Z,18.94
2018-05-02T10:49:44.455Z,19.68
2018-05-02T10:52:12.838Z,20.15
2018-05-02T10:54:41.162Z,20.68
2018-05-02T10:57:09.511Z,19.90
2018-05-02T10:59:39.062Z,19.71
2018-05-02T11:02:07.413Z,20.26
2018-05-02T11:04:35.795Z,20.56
2018-05-02T11:07:04.181Z,20.64
2018-05-02T11:09:33.386Z,20.42
2018-05-02T11:12:01.760Z,20.84
2018-05-02T11:14:30.168Z,20.68
2018-05-02T11:16:59.250Z,20.71
2018-05-02T11:19:27.572Z,20.57
2018-05-02T11:21:57.416Z,20.73
2018-05-02T11:24:25.696Z,20.50
2018-05-02T11:26:54.038Z,19.83
2018-05-02T11:29:22.417Z,20.05
2018-05-02T11:31:50.734Z,19.96
2018-05-02T11:34:19.083Z,20.35
2018-05-02T11:36:47.427Z,20.95
2018-05-02T11:39:15.797Z,20.32
2018-05-02T11:41:44.912Z,20.43
2018-05-02T11:44:13.743Z,20.89
2018-05-02T11:46:42.121Z,21.83
2018-05-02T11:49:10.468Z,22.11
2018-05-02T11:51:38.827Z,21.88
2018-05-02T11:54:08.169Z,22.06
2018-05-02T11:56:36.571Z,22.11
2018-05-02T11:59:04.997Z,20.93
2018-05-02T12:01:33.376Z,20.82
2018-05-02T12:04:01.736Z,20.95
2018-05-02T12:06:30.205Z,21.84
2018-05-02T12:08:58.567Z,21.44
2018-05-02T12:11:26.956Z,22.05
2018-05-02T12:13:55.403Z,21.15
2018-05-02T12:16:23.759Z,21.61
2018-05-02T12:18:52.856Z,21.70
2018-05-02T12:21:21.991Z,20.44
2018-05-02T12:23:50.330Z,20.47
2018-05-02T12:26:18.676Z,20.94
2018-05-02T12:28:47.572Z,20.79
2018-05-02T12:31:15.885Z,20.57
2018-05-02T12:33:44.257Z,21.36
2018-05-02T12:36:13.072Z,21.32
2018-05-02T12:38:41.478Z,21.80
2018-05-02T12:41:09.928Z,22.19
2018-05-02T12:43:38.230Z,22.53
2018-05-02T12:46:06.568Z,21.57
2018-05-02T12:48:34.918Z,21.48
2018-05-02T12:51:03.508Z,21.09
2018-05-02T12:53:31.840Z,20.74
2018-05-02T12:56:00.275Z,21.07
2018-05-02T12:58:28.635Z,21.01
2018-05-02T13:00:57.003Z,20.67
2018-05-02T13:03:25.319Z,21.06
2018-05-02T13:05:54.473Z,20.66
2018-05-02T13:08:22.799Z,20.55
2018-05-02T13:10:51.934Z,20.83
2018-05-02T13:13:20.787Z,20.45
2018-05-02T13:15:49.873Z,20.68
2018-05-02T13:18:18.220Z,21.28
2018-05-02T13:20:47.340Z,20.92
2018-05-02T13:23:15.671Z,20.33
2018-05-02T13:25:44.069Z,20.45
2018-05-02T13:28:12.428Z,20.60
2018-05-02T13:30:40.796Z,20.23
2018-05-02T13:33:09.144Z,20.43
2018-05-02T13:35:38.562Z,20.46
2018-05-02T13:38:06.953Z,20.17
2018-05-02T13:40:35.319Z,20.27
2018-05-02T13:43:03.687Z,20.72
2018-05-02T13:45:32.848Z,20.68
2018-05-02T13:48:01.201Z,20.69
2018-05-02T13:50:29.540Z,21.00
2018-05-02T13:52:58.650Z,21.04
2018-05-02T13:55:27.899Z,20.65
2018-05-02T13:57:56.325Z,20.77
2018-05-02T14:00:25.509Z,20.45
2018-05-02T14:02:54.596Z,20.33
2018-05-02T14:05:22.972Z,20.11
2018-05-02T14:07:51.288Z,19.98
2018-05-02T14:10:19.617Z,20.04
2018-05-02T14:12:48.744Z,19.83
2018-05-02T14:15:17.867Z,20.10
2018-05-02T14:17:46.186Z,19.59
2018-05-02T14:20:15.281Z,19.15
2018-05-02T14:22:43.597Z,19.57
2018-05-02T14:25:12.689Z,19.86
2018-05-02T14:27:41.099Z,19.74
2018-05-02T14:30:09.411Z,20.21
2018-05-02T14:32:37.778Z,20.24
2018-05-02T14:35:06.194Z,20.01
2018-05-02T14:37:34.529Z,19.60
2018-05-02T14:40:02.885Z,19.49
2018-05-02T14:42:32.111Z,19.26
2018-05-02T14:45:00.461Z,19.62
2018-05-02T14:47:29.623Z,19.80
2018-05-02T14:49:57.988Z,19.54
2018-05-02T14:52:26.384Z,19.43
2018-05-02T14:54:55.520Z,19.70
2018-05-02T14:57:23.886Z,19.28
2018-05-02T14:59:52.984Z,19.16
2018-05-02T15:02:22.152Z,19.47
2018-05-02T15:04:50.834Z,19.28
2018-05-02T15:07:19.225Z,19.36
2018-05-02T15:09:47.560Z,19.30
2018-05-02T15:12:16.001Z,19.42
2018-05-02T15:14:45.134Z,19.21
2018-05-02T15:17:13.471Z,19.28
2018-05-02T15:19:41.832Z,19.25
2018-05-02T15:22:10.191Z,19.28
2018-05-02T15:24:38.551Z,19.10
2018-05-02T15:27:07.048Z,19.02
2018-05-02T15:29:35.372Z,19.01
2018-05-02T15:32:04.478Z,19.14
2018-05-02T15:34:33.681Z,19.20
2018-05-02T15:37:02.010Z,19.36
2018-05-02T15:39:30.409Z,19.69
2018-05-02T15:41:58.800Z,19.74
2018-05-02T15:44:27.129Z,19.43
2018-05-02T15:46:55.469Z,18.94
2018-05-02T15:49:24.488Z,18.89
2018-05-02T15:51:52.774Z,19.03
2018-05-02T15:54:21.138Z,18.99
2018-05-02T15:56:49.504Z,18.60
2018-05-02T15:59:18.639Z,18.70
2018-05-02T16:01:46.981Z,19.00
2018-05-02T16:04:16.147Z,18.59
2018-05-02T16:06:44.504Z,18.88
2018-05-02T16:09:12.846Z,18.72
2018-05-02T16:11:41.716Z,18.50
2018-05-02T16:14:10.028Z,18.17
2018-05-02T16:16:38.398Z,18.17
2018-05-02T16:19:06.795Z,18.31
2018-05-02T16:21:35.132Z,18.40
2018-05-02T16:24:03.479Z,18.37
2018-05-02T16:26:31.814Z,18.48
2018-05-02T16:29:00.941Z,18.22
2018-05-02T16:31:29.260Z,17.88
2018-05-02T16:33:57.920Z,17.98
2018-05-02T16:36:26.259Z,17.86
2018-05-02T16:38:54.596Z,17.98
2018-05-02T16:41:22.935Z,18.05
2018-05-02T16:43:51.260Z,17.64
2018-05-02T16:46:19.680Z,17.35
2018-05-02T16:48:48.055Z,17.69
2018-05-02T16:51:16.406Z,17.74
2018-05-02T16:53:44.715Z,17.51
2018-05-02T16:56:13.574Z,17.49
2018-05-02T16:58:41.937Z,17.52
2018-05-02T17:01:10.311Z,17.55
2018-05-02T17:03:38.666Z,17.30
2018-05-02T17:06:07.748Z,17.10
2018-05-02T17:08:36.082Z,17.11
2018-05-02T17:11:05.249Z,17.10
2018-05-02T17:13:33.615Z,17.39
2018-05-02T17:16:02.121Z,17.27
2018-05-02T17:18:30.759Z,16.93
2018-05-02T17:20:59.206Z,16.90
2018-05-02T17:23:27.539Z,17.07
2018-05-02T17:25:55.890Z,16.91
2018-05-02T17:28:24.984Z,16.98
2018-05-02T17:30:54.070Z,17.08
2018-05-02T17:33:23.193Z,17.07
2018-05-02T17:35:51.592Z,17.28
2018-05-02T17:38:19.934Z,16.96
2018-05-02T17:40:49.354Z,17.19
2018-05-02T17:43:17.677Z,16.62
2018-05-02T17:45:46.023Z,16.62
2018-05-02T17:48:14.403Z,16.78
2018-05-02T17:50:43.509Z,16.67
2018-05-02T17:53:11.836Z,16.85
2018-05-02T17:55:40.960Z,16.71
2018-05-02T17:58:09.301Z,16.86
2018-05-02T18:00:37.688Z,16.64
2018-05-02T18:03:06.964Z,16.82
2018-05-02T18:05:35.329Z,16.58
2018-05-02T18:08:03.676Z,16.51
2018-05-02T18:10:32.116Z,16.24
2018-05-02T18:13:00.423Z,16.54
2018-05-02T18:15:29.525Z,16.36
2018-05-02T18:17:57.890Z,16.45
2018-05-02T18:20:26.991Z,16.50
2018-05-02T18:22:56.128Z,16.70
2018-05-02T18:25:24.854Z,16.62
2018-05-02T18:27:53.244Z,16.73
2018-05-02T18:30:22.508Z,16.60
2018-05-02T18:32:50.893Z,16.69
2018-05-02T18:35:19.217Z,16.67
2018-05-02T18:37:47.516Z,16.69
2018-05-02T18:40:15.855Z,16.76
2018-05-02T18:42:44.204Z,16.67
2018-05-02T18:45:12.536Z,16.50
2018-05-02T18:47:41.223Z,16.41
2018-05-02T18:50:09.570Z,16.29
2018-05-02T18:52:37.873Z,16.20
2018-05-02T18:55:07.016Z,16.14
2018-05-02T18:57:35.330Z,16.23
2018-05-02T19:00:03.771Z,16.24
2018-05-02T19:02:32.106Z,16.26
2018-05-02T19:05:01.175Z,16.15
2018-05-02T19:07:29.475Z,16.03
2018-05-02T19:09:58.151Z,15.91
2018-05-02T19:12:26.486Z,16.07
2018-05-02T19:14:54.804Z,16.13
2018-05-02T19:17:23.147Z,16.10
2018-05-02T19:19:57.120Z,15.96
2018-05-02T19:22:26.305Z,15.82
2018-05-02T19:25:00.358Z,15.79
2018-05-02T19:27:29.298Z,15.78
2018-05-02T19:29:58.393Z,15.91
2018-05-02T19:32:32.169Z,15.80
2018-05-02T19:35:00.538Z,15.82
2018-05-02T19:37:28.871Z,15.75
2018-05-02T19:40:02.844Z,15.72
2018-05-02T19:42:36.588Z,15.61
2018-05-02T19:45:05.476Z,15.69
2018-05-02T19:47:33.755Z,15.58
2018-05-02T19:50:02.917Z,15.56
2018-05-02T19:52:36.865Z,15.61
2018-05-02T19:55:05.328Z,15.54
2018-05-02T19:57:33.690Z,15.54
2018-05-02T20:00:02.120Z,15.55
2018-05-02T20:02:36.754Z,15.31
2018-05-02T20:05:05.468Z,15.33
2018-05-02T20:07:39.328Z,15.27
2018-05-02T20:10:13.259Z,15.15
2018-05-02T20:12:47.045Z,15.23
2018-05-02T20:15:16.195Z,15.41
2018-05-02T20:17:44.534Z,15.32
2018-05-02T20:20:13.661Z,15.37
2018-05-02T20:22:42.337Z,15.38
2018-05-02T20:25:10.693Z,15.28
2018-05-02T20:27:39.058Z,15.18
2018-05-02T20:30:07.431Z,15.28
2018-05-02T20:32:35.797Z,15.42
2018-05-02T20:35:04.143Z,15.42
2018-05-02T20:37:32.513Z,15.38
2018-05-02T20:40:00.827Z,15.34
2018-05-02T20:42:29.198Z,15.11
2018-05-02T20:44:58.036Z,14.97
2018-05-02T20:47:26.376Z,14.95
2018-05-02T20:49:54.733Z,14.89
2018-05-02T20:52:23.103Z,14.81
2018-05-02T20:54:51.496Z,14.72
2018-05-02T20:57:19.764Z,14.80
2018-05-02T20:59:48.148Z,14.85
2018-05-02T21:02:16.516Z,14.79
2018-05-02T21:04:44.886Z,14.53
2018-05-02T21:07:13.615Z,14.59
2018-05-02T21:09:42.016Z,14.85
2018-05-02T21:12:10.331Z,14.94
2018-05-02T21:14:38.707Z,14.81
2018-05-02T21:17:07.031Z,14.60
2018-05-02T21:19:35.561Z,14.38
2018-05-02T21:22:03.887Z,14.07
2018-05-02T21:24:33.032Z,14.14
2018-05-02T21:27:01.421Z,14.15
2018-05-02T21:29:30.345Z,14.17
2018-05-02T21:31:58.853Z,14.21
2018-05-02T21:34:28.030Z,14.15
2018-05-02T21:36:56.471Z,14.15
2018-05-02T21:39:24.783Z,14.23
2018-05-02T21:41:53.159Z,14.43
2018-05-02T21:44:21.542Z,14.42
2018-05-02T21:46:49.856Z,14.36
2018-05-02T21:49:18.221Z,14.34
2018-05-02T21:51:47.097Z,14.48
2018-05-02T21:54:15.419Z,14.61
2018-05-02T21:56:44.529Z,14.57
2018-05-02T21:59:13.673Z,14.42
2018-05-02T22:01:42.006Z,14.56
2018-05-02T22:04:10.351Z,14.40
2018-05-02T22:06:38.682Z,14.43
2018-05-02T22:09:07.066Z,14.35
2018-05-02T22:11:36.200Z,14.30
2018-05-02T22:14:04.639Z,14.29
2018-05-02T22:16:32.958Z,13.96
2018-05-02T22:19:01.311Z,14.18
2018-05-02T22:21:29.712Z,14.32
2018-05-02T22:23:58.061Z,14.32
2018-05-02T22:26:26.412Z,14.44
2018-05-02T22:28:54.790Z,14.26
2018-05-02T22:31:23.884Z,14.17
2018-05-02T22:33:52.961Z,13.94
2018-05-02T22:36:21.495Z,13.86
2018-05-02T22:38:49.802Z,13.72
2018-05-02T22:41:18.117Z,13.51
2018-05-02T22:43:46.499Z,13.54
2018-05-02T22:46:14.838Z,13.76
2018-05-02T22:48:43.265Z,13.65
2018-05-02T22:51:11.600Z,13.67
2018-05-02T22:53:39.915Z,13.60
2018-05-02T22:56:08.261Z,13.15
2018-05-02T22:58:37.267Z,13.06
2018-05-02T23:01:05.610Z,13.16
2018-05-02T23:03:33.995Z,13.37
2018-05-02T23:06:02.407Z,13.45
2018-05-02T23:08:31.531Z,13.33
2018-05-02T23:10:59.861Z,13.32
2018-05-02T23:13:28.238Z,13.45
2018-05-02T23:15:56.537Z,13.60
2018-05-02T23:18:24.970Z,13.69
2018-05-02T23:20:53.672Z,13.72
2018-05-02T23:23:21.992Z,13.56
2018-05-02T23:25:50.303Z,13.39
2018-05-02T23:28:18.668Z,13.42
2018-05-02T23:30:47.744Z,13.38
2018-05-02T23:33:16.048Z,13.33
2018-05-02T23:35:44.427Z,13.31
2018-05-02T23:38:12.758Z,13.26
2018-05-02T23:40:41.109Z,13.05
2018-05-02T23:43:09.534Z,12.80
2018-05-02T23:45:37.866Z,12.86
2018-05-02T23:48:06.226Z,12.91
2018-05-02T23:50:34.623Z,12.84
2018-05-02T23:53:02.978Z,12.81
2018-05-02T23:55:31.311Z,12.83
2018-05-02T23:57:59.755Z,12.98
